sensor_id;sensor_type;location;lat;lon;timestamp;P1;durP1;ratioP1;P2;durP2;ratioP2
71083;SDS011;58741;52.672;13.548;2023-05-10T05:04:18;7.55;;;1.48;;
71083;SDS011;58741;52.672;13.548;2023-05-10T05:06:43;1.77;;;1.27;;
71083;SDS011;58741;52.672;13.548;2023-05-10T05:09:09;2.70;;;1.17;;
71083;SDS011;58741;52.672;13.548;2023-05-10T05:11:35;2.85;;;1.40;;
71083;SDS011;58741;52.672;13.548;2023-05-10T05:14:01;0.82;;;0.70;;
71083;SDS011;58741;52.672;13.548;2023-05-10T05:16:26;1.05;;;0.90;;
71083;SDS011;58741;52.672;13.548;2023-05-10T05:18:52;1.08;;;0.93;;
71083;SDS011;58741;52.672;13.548;2023-05-10T05:21:18;1.55;;;0.95;;
71083;SDS011;58741;52.672;13.548;2023-05-10T05:23:45;1.65;;;1.10;;
71083;SDS011;58741;52.672;13.548;2023-05-10T05:26:11;3.33;;;1.42;;
71083;SDS011;58741;52.672;13.548;2023-05-10T05:28:37;1.23;;;1.05;;
71083;SDS011;58741;52.672;13.548;2023-05-10T05:31:03;1.33;;;0.95;;
71083;SDS011;58741;52.672;13.548;2023-05-10T05:33:35;1.13;;;0.95;;
71083;SDS011;58741;52.672;13.548;2023-05-10T05:36:01;1.08;;;0.98;;
71083;SDS011;58741;52.672;13.548;2023-05-10T05:38:27;1.08;;;0.98;;
71083;SDS011;58741;52.672;13.548;2023-05-10T05:40:53;1.00;;;0.90;;
71083;SDS011;58741;52.672;13.548;2023-05-10T05:43:19;1.52;;;0.95;;
71083;SDS011;58741;52.672;13.548;2023-05-10T05:45:44;1.75;;;1.35;;
71083;SDS011;58741;52.672;13.548;2023-05-10T05:48:10;1.85;;;1.25;;
71083;SDS011;58741;52.672;13.548;2023-05-10T05:50:36;1.42;;;0.98;;
71083;SDS011;58741;52.672;13.548;2023-05-10T05:53:01;1.75;;;1.05;;
71083;SDS011;58741;52.672;13.548;2023-05-10T05:55:27;1.77;;;1.08;;
71083;SDS011;58741;52.672;13.548;2023-05-10T05:57:54;1.35;;;0.98;;
71083;SDS011;58741;52.672;13.548;2023-05-10T06:00:20;2.67;;;1.40;;
71083;SDS011;58741;52.672;13.548;2023-05-10T06:02:46;1.23;;;1.08;;
71083;SDS011;58741;52.672;13.548;2023-05-10T06:05:12;1.50;;;1.00;;
71083;SDS011;58741;52.672;13.548;2023-05-10T06:07:39;3.03;;;1.33;;
71083;SDS011;58741;52.672;13.548;2023-05-10T06:10:07;1.15;;;1.00;;
71083;SDS011;58741;52.672;13.548;2023-05-10T06:12:33;1.83;;;1.17;;
71083;SDS011;58741;52.672;13.548;2023-05-10T06:14:59;2.33;;;1.05;;
71083;SDS011;58741;52.672;13.548;2023-05-10T06:17:25;1.98;;;1.10;;
71083;SDS011;58741;52.672;13.548;2023-05-10T06:19:51;0.88;;;0.80;;
71083;SDS011;58741;52.672;13.548;2023-05-10T06:22:17;0.80;;;0.80;;
71083;SDS011;58741;52.672;13.548;2023-05-10T06:24:42;2.80;;;1.02;;
71083;SDS011;58741;52.672;13.548;2023-05-10T06:27:08;1.13;;;0.77;;
71083;SDS011;58741;52.672;13.548;2023-05-10T06:29:34;1.15;;;1.00;;
71083;SDS011;58741;52.672;13.548;2023-05-10T06:32:00;0.90;;;0.75;;
71083;SDS011;58741;52.672;13.548;2023-05-10T06:34:25;0.80;;;0.80;;
71083;SDS011;58741;52.672;13.548;2023-05-10T06:36:51;1.35;;;0.90;;
71083;SDS011;58741;52.672;13.548;2023-05-10T06:39:16;2.22;;;0.80;;
71083;SDS011;58741;52.672;13.548;2023-05-10T06:41:42;1.92;;;0.82;;
71083;SDS011;58741;52.672;13.548;2023-05-10T06:44:08;1.98;;;1.00;;
71083;SDS011;58741;52.672;13.548;2023-05-10T06:46:33;0.98;;;0.93;;
71083;SDS011;58741;52.672;13.548;2023-05-10T06:48:59;1.58;;;1.08;;
71083;SDS011;58741;52.672;13.548;2023-05-10T06:51:24;3.65;;;0.63;;
71083;SDS011;58741;52.672;13.548;2023-05-10T06:53:51;0.88;;;0.70;;
71083;SDS011;58741;52.672;13.548;2023-05-10T06:56:16;1.45;;;0.80;;
71083;SDS011;58741;52.672;13.548;2023-05-10T06:58:42;4.15;;;1.23;;
71083;SDS011;58741;52.672;13.548;2023-05-10T07:01:07;1.30;;;1.02;;
71083;SDS011;58741;52.672;13.548;2023-05-10T07:03:33;1.73;;;0.90;;
71083;SDS011;58741;52.672;13.548;2023-05-10T07:06:02;1.00;;;0.90;;
71083;SDS011;58741;52.672;13.548;2023-05-10T07:08:29;1.15;;;0.88;;
71083;SDS011;58741;52.672;13.548;2023-05-10T07:10:59;0.82;;;0.73;;
71083;SDS011;58741;52.672;13.548;2023-05-10T07:13:29;1.48;;;0.88;;
71083;SDS011;58741;52.672;13.548;2023-05-10T07:15:56;2.85;;;0.80;;
71083;SDS011;58741;52.672;13.548;2023-05-10T07:18:22;1.20;;;0.82;;
71083;SDS011;58741;52.672;13.548;2023-05-10T07:20:47;1.27;;;0.70;;
71083;SDS011;58741;52.672;13.548;2023-05-10T07:23:13;1.77;;;1.23;;
71083;SDS011;58741;52.672;13.548;2023-05-10T07:25:38;0.75;;;0.75;;
71083;SDS011;58741;52.672;13.548;2023-05-10T07:28:04;1.27;;;1.08;;
71083;SDS011;58741;52.672;13.548;2023-05-10T07:30:30;0.80;;;0.80;;
71083;SDS011;58741;52.672;13.548;2023-05-10T07:32:56;1.20;;;0.82;;
71083;SDS011;58741;52.672;13.548;2023-05-10T07:35:21;4.28;;;1.05;;
71083;SDS011;58741;52.672;13.548;2023-05-10T07:37:47;1.52;;;1.02;;
71083;SDS011;58741;52.672;13.548;2023-05-10T07:40:12;0.75;;;0.75;;
71083;SDS011;58741;52.672;13.548;2023-05-10T07:42:38;1.70;;;0.82;;
71083;SDS011;58741;52.672;13.548;2023-05-10T07:45:04;1.70;;;0.82;;
71083;SDS011;58741;52.672;13.548;2023-05-10T07:47:30;1.55;;;0.80;;
71083;SDS011;58741;52.672;13.548;2023-05-10T07:49:55;1.63;;;0.95;;
71083;SDS011;58741;52.672;13.548;2023-05-10T07:52:21;1.08;;;0.80;;
71083;SDS011;58741;52.672;13.548;2023-05-10T07:54:46;0.80;;;0.80;;
71083;SDS011;58741;52.672;13.548;2023-05-10T07:57:12;0.50;;;0.50;;
71083;SDS011;58741;52.672;13.548;2023-05-10T07:59:40;2.92;;;0.80;;
71083;SDS011;58741;52.672;13.548;2023-05-10T08:02:06;1.85;;;0.90;;
71083;SDS011;58741;52.672;13.548;2023-05-10T08:04:31;1.17;;;0.85;;
71083;SDS011;58741;52.672;13.548;2023-05-10T08:06:57;1.35;;;0.85;;
71083;SDS011;58741;52.672;13.548;2023-05-10T08:09:23;1.80;;;0.95;;
71083;SDS011;58741;52.672;13.548;2023-05-10T08:11:49;0.73;;;0.52;;
71083;SDS011;58741;52.672;13.548;2023-05-10T08:14:15;1.30;;;0.90;;
71083;SDS011;58741;52.672;13.548;2023-05-10T08:16:41;1.10;;;0.60;;
71083;SDS011;58741;52.672;13.548;2023-05-10T08:19:07;1.05;;;1.00;;
71083;SDS011;58741;52.672;13.548;2023-05-10T08:21:33;2.17;;;0.88;;
71083;SDS011;58741;52.672;13.548;2023-05-10T08:23:58;0.70;;;0.70;;
71083;SDS011;58741;52.672;13.548;2023-05-10T08:26:24;3.45;;;0.77;;
71083;SDS011;58741;52.672;13.548;2023-05-10T08:28:49;1.30;;;0.70;;
71083;SDS011;58741;52.672;13.548;2023-05-10T08:31:15;1.10;;;0.88;;
71083;SDS011;58741;52.672;13.548;2023-05-10T08:33:41;1.00;;;0.90;;
71083;SDS011;58741;52.672;13.548;2023-05-10T08:36:06;1.02;;;0.80;;
71083;SDS011;58741;52.672;13.548;2023-05-10T08:38:32;1.05;;;0.77;;
71083;SDS011;58741;52.672;13.548;2023-05-10T08:40:58;0.70;;;0.70;;
71083;SDS011;58741;52.672;13.548;2023-05-10T08:43:27;1.67;;;1.00;;
71083;SDS011;58741;52.672;13.548;2023-05-10T08:45:54;1.17;;;0.85;;
71083;SDS011;58741;52.672;13.548;2023-05-10T08:48:24;1.77;;;1.10;;
71083;SDS011;58741;52.672;13.548;2023-05-10T08:50:51;2.13;;;0.90;;
71083;SDS011;58741;52.672;13.548;2023-05-10T08:53:18;0.85;;;0.73;;
71083;SDS011;58741;52.672;13.548;2023-05-10T08:55:44;0.52;;;0.52;;
71083;SDS011;58741;52.672;13.548;2023-05-10T08:58:11;1.02;;;0.60;;
71083;SDS011;58741;52.672;13.548;2023-05-10T09:00:36;1.00;;;0.73;;
71083;SDS011;58741;52.672;13.548;2023-05-10T09:03:03;4.93;;;0.75;;
71083;SDS011;58741;52.672;13.548;2023-05-10T09:05:29;1.05;;;0.95;;
71083;SDS011;58741;52.672;13.548;2023-05-10T09:07:55;0.90;;;0.88;;
71083;SDS011;58741;52.672;13.548;2023-05-10T09:10:20;1.25;;;0.90;;
71083;SDS011;58741;52.672;13.548;2023-05-10T09:12:46;0.90;;;0.80;;
71083;SDS011;58741;52.672;13.548;2023-05-10T09:15:16;1.80;;;0.75;;
71083;SDS011;58741;52.672;13.548;2023-05-10T09:17:44;1.17;;;1.08;;
71083;SDS011;58741;52.672;13.548;2023-05-10T09:20:11;0.68;;;0.68;;
71083;SDS011;58741;52.672;13.548;2023-05-10T09:22:37;1.42;;;1.00;;
71083;SDS011;58741;52.672;13.548;2023-05-10T09:25:04;0.82;;;0.70;;
71083;SDS011;58741;52.672;13.548;2023-05-10T09:27:34;0.77;;;0.77;;
71083;SDS011;58741;52.672;13.548;2023-05-10T09:30:01;1.35;;;0.88;;
71083;SDS011;58741;52.672;13.548;2023-05-10T09:35:16;0.60;;;0.60;;
71083;SDS011;58741;52.672;13.548;2023-05-10T09:37:44;1.00;;;0.82;;
71083;SDS011;58741;52.672;13.548;2023-05-10T09:40:22;3.47;;;0.80;;
71083;SDS011;58741;52.672;13.548;2023-05-10T09:42:59;1.17;;;0.82;;
71083;SDS011;58741;52.672;13.548;2023-05-10T09:45:30;3.50;;;1.00;;
71083;SDS011;58741;52.672;13.548;2023-05-10T09:47:58;3.00;;;1.20;;
71083;SDS011;58741;52.672;13.548;2023-05-10T09:50:25;1.45;;;1.10;;
71083;SDS011;58741;52.672;13.548;2023-05-10T09:52:52;1.15;;;0.80;;
71083;SDS011;58741;52.672;13.548;2023-05-10T09:55:37;1.10;;;0.95;;
71083;SDS011;58741;52.672;13.548;2023-05-10T09:58:03;0.73;;;0.73;;
71083;SDS011;58741;52.672;13.548;2023-05-10T10:00:35;0.88;;;0.88;;
71083;SDS011;58741;52.672;13.548;2023-05-10T10:03:02;0.70;;;0.70;;
71083;SDS011;58741;52.672;13.548;2023-05-10T10:05:29;0.70;;;0.70;;
71083;SDS011;58741;52.672;13.548;2023-05-10T10:07:56;1.05;;;0.95;;
71083;SDS011;58741;52.672;13.548;2023-05-10T10:10:26;1.48;;;1.23;;
71083;SDS011;58741;52.672;13.548;2023-05-10T10:12:53;1.13;;;1.02;;
71083;SDS011;58741;52.672;13.548;2023-05-10T10:15:23;0.90;;;0.90;;
71083;SDS011;58741;52.672;13.548;2023-05-10T10:17:50;1.45;;;1.10;;
71083;SDS011;58741;52.672;13.548;2023-05-10T10:20:17;1.17;;;0.82;;
71083;SDS011;58741;52.672;13.548;2023-05-10T10:22:43;1.50;;;1.08;;
71083;SDS011;58741;52.672;13.548;2023-05-10T10:25:09;1.23;;;0.73;;
71083;SDS011;58741;52.672;13.548;2023-05-10T10:27:43;1.05;;;0.82;;
71083;SDS011;58741;52.672;13.548;2023-05-10T10:35:31;1.35;;;0.90;;
71083;SDS011;58741;52.672;13.548;2023-05-10T10:37:57;1.83;;;1.35;;
71083;SDS011;58741;52.672;13.548;2023-05-10T10:40:24;1.08;;;0.90;;
71083;SDS011;58741;52.672;13.548;2023-05-10T10:42:51;1.27;;;1.00;;
71083;SDS011;58741;52.672;13.548;2023-05-10T10:45:17;1.35;;;1.17;;
71083;SDS011;58741;52.672;13.548;2023-05-10T10:47:42;1.42;;;1.00;;
71083;SDS011;58741;52.672;13.548;2023-05-10T10:50:10;1.90;;;1.00;;
71083;SDS011;58741;52.672;13.548;2023-05-10T10:52:41;1.02;;;0.75;;
71083;SDS011;58741;52.672;13.548;2023-05-10T10:55:17;1.27;;;0.93;;
71083;SDS011;58741;52.672;13.548;2023-05-10T11:05:43;0.77;;;0.73;;
71083;SDS011;58741;52.672;13.548;2023-05-10T11:08:18;0.80;;;0.80;;
71083;SDS011;58741;52.672;13.548;2023-05-10T11:16:20;1.13;;;1.02;;
71083;SDS011;58741;52.672;13.548;2023-05-10T11:19:03;0.90;;;0.80;;
71083;SDS011;58741;52.672;13.548;2023-05-10T11:21:30;1.65;;;0.90;;
71083;SDS011;58741;52.672;13.548;2023-05-10T11:23:58;0.73;;;0.65;;
71083;SDS011;58741;52.672;13.548;2023-05-10T11:26:25;1.30;;;1.00;;
71083;SDS011;58741;52.672;13.548;2023-05-10T11:28:55;1.15;;;0.95;;
71083;SDS011;58741;52.672;13.548;2023-05-10T11:31:21;0.80;;;0.80;;
71083;SDS011;58741;52.672;13.548;2023-05-10T11:33:49;0.95;;;0.93;;
71083;SDS011;58741;52.672;13.548;2023-05-10T11:36:17;1.13;;;0.98;;
71083;SDS011;58741;52.672;13.548;2023-05-10T11:38:45;1.40;;;0.80;;
71083;SDS011;58741;52.672;13.548;2023-05-10T11:41:12;0.70;;;0.70;;
71083;SDS011;58741;52.672;13.548;2023-05-10T11:43:38;0.60;;;0.60;;
71083;SDS011;58741;52.672;13.548;2023-05-10T11:46:05;1.98;;;0.93;;
71083;SDS011;58741;52.672;13.548;2023-05-10T11:48:32;0.70;;;0.70;;
71083;SDS011;58741;52.672;13.548;2023-05-10T11:50:58;1.17;;;0.98;;
71083;SDS011;58741;52.672;13.548;2023-05-10T11:53:26;1.15;;;1.05;;
71083;SDS011;58741;52.672;13.548;2023-05-10T11:55:52;4.25;;;0.73;;
71083;SDS011;58741;52.672;13.548;2023-05-10T11:58:18;1.08;;;0.90;;
71083;SDS011;58741;52.672;13.548;2023-05-10T12:00:44;1.00;;;0.90;;
71083;SDS011;58741;52.672;13.548;2023-05-10T12:03:11;0.90;;;0.90;;
71083;SDS011;58741;52.672;13.548;2023-05-10T12:05:36;0.63;;;0.60;;
71083;SDS011;58741;52.672;13.548;2023-05-10T12:08:15;5.57;;;1.05;;
71083;SDS011;58741;52.672;13.548;2023-05-10T12:10:45;0.73;;;0.73;;
71083;SDS011;58741;52.672;13.548;2023-05-10T12:13:11;1.05;;;0.80;;
71083;SDS011;58741;52.672;13.548;2023-05-10T12:15:41;0.63;;;0.63;;
71083;SDS011;58741;52.672;13.548;2023-05-10T12:18:08;0.60;;;0.60;;
71083;SDS011;58741;52.672;13.548;2023-05-10T12:20:35;0.70;;;0.70;;
71083;SDS011;58741;52.672;13.548;2023-05-10T12:23:01;0.80;;;0.80;;
71083;SDS011;58741;52.672;13.548;2023-05-10T12:25:32;1.35;;;0.95;;
71083;SDS011;58741;52.672;13.548;2023-05-10T12:27:58;1.13;;;1.02;;
71083;SDS011;58741;52.672;13.548;2023-05-10T12:30:31;1.27;;;0.63;;
71083;SDS011;58741;52.672;13.548;2023-05-10T12:33:11;0.70;;;0.70;;
71083;SDS011;58741;52.672;13.548;2023-05-10T12:41:00;1.52;;;1.02;;
71083;SDS011;58741;52.672;13.548;2023-05-10T12:43:28;0.77;;;0.77;;
71083;SDS011;58741;52.672;13.548;2023-05-10T12:45:54;1.38;;;1.00;;
71083;SDS011;58741;52.672;13.548;2023-05-10T12:48:21;1.83;;;1.02;;
71083;SDS011;58741;52.672;13.548;2023-05-10T12:50:46;1.17;;;1.00;;
71083;SDS011;58741;52.672;13.548;2023-05-10T12:53:15;1.20;;;1.02;;
71083;SDS011;58741;52.672;13.548;2023-05-10T12:55:44;1.33;;;0.80;;
71083;SDS011;58741;52.672;13.548;2023-05-10T12:58:10;1.17;;;0.82;;
71083;SDS011;58741;52.672;13.548;2023-05-10T13:00:36;0.73;;;0.73;;
71083;SDS011;58741;52.672;13.548;2023-05-10T13:03:03;1.20;;;0.80;;
71083;SDS011;58741;52.672;13.548;2023-05-10T13:05:31;0.65;;;0.65;;
71083;SDS011;58741;52.672;13.548;2023-05-10T13:08:00;2.38;;;1.33;;
71083;SDS011;58741;52.672;13.548;2023-05-10T13:10:26;0.93;;;0.90;;
71083;SDS011;58741;52.672;13.548;2023-05-10T13:12:53;1.00;;;0.90;;
71083;SDS011;58741;52.672;13.548;2023-05-10T13:15:18;0.50;;;0.50;;
71083;SDS011;58741;52.672;13.548;2023-05-10T13:17:44;1.20;;;0.80;;
71083;SDS011;58741;52.672;13.548;2023-05-10T13:20:10;0.63;;;0.63;;
71083;SDS011;58741;52.672;13.548;2023-05-10T13:22:36;3.28;;;0.70;;
71083;SDS011;58741;52.672;13.548;2023-05-10T13:25:02;1.13;;;0.95;;
71083;SDS011;58741;52.672;13.548;2023-05-10T13:27:28;1.88;;;0.93;;
71083;SDS011;58741;52.672;13.548;2023-05-10T13:29:53;1.55;;;0.82;;
71083;SDS011;58741;52.672;13.548;2023-05-10T13:32:24;0.70;;;0.68;;
71083;SDS011;58741;52.672;13.548;2023-05-10T13:34:50;6.32;;;0.90;;
71083;SDS011;58741;52.672;13.548;2023-05-10T13:37:16;4.05;;;1.33;;
71083;SDS011;58741;52.672;13.548;2023-05-10T13:39:42;0.70;;;0.70;;
71083;SDS011;58741;52.672;13.548;2023-05-10T13:42:07;1.65;;;1.10;;
71083;SDS011;58741;52.672;13.548;2023-05-10T13:44:33;0.70;;;0.70;;
71083;SDS011;58741;52.672;13.548;2023-05-10T13:46:59;1.25;;;1.15;;
71083;SDS011;58741;52.672;13.548;2023-05-10T13:49:24;2.13;;;0.90;;
71083;SDS011;58741;52.672;13.548;2023-05-10T13:51:50;0.93;;;0.73;;
71083;SDS011;58741;52.672;13.548;2023-05-10T13:54:17;0.52;;;0.52;;
71083;SDS011;58741;52.672;13.548;2023-05-10T13:56:45;1.85;;;0.80;;
71083;SDS011;58741;52.672;13.548;2023-05-10T13:59:12;4.13;;;0.50;;
71083;SDS011;58741;52.672;13.548;2023-05-10T14:01:39;0.60;;;0.60;;
71083;SDS011;58741;52.672;13.548;2023-05-10T14:04:08;0.95;;;0.88;;
71083;SDS011;58741;52.672;13.548;2023-05-10T14:06:38;0.60;;;0.60;;
71083;SDS011;58741;52.672;13.548;2023-05-10T14:09:03;0.57;;;0.57;;
71083;SDS011;58741;52.672;13.548;2023-05-10T14:11:29;0.82;;;0.65;;
71083;SDS011;58741;52.672;13.548;2023-05-10T14:13:55;2.10;;;0.80;;
71083;SDS011;58741;52.672;13.548;2023-05-10T14:16:21;0.80;;;0.80;;
71083;SDS011;58741;52.672;13.548;2023-05-10T14:18:47;0.77;;;0.70;;
71083;SDS011;58741;52.672;13.548;2023-05-10T14:21:13;0.80;;;0.75;;
71083;SDS011;58741;52.672;13.548;2023-05-10T14:23:39;0.70;;;0.60;;
71083;SDS011;58741;52.672;13.548;2023-05-10T14:26:04;0.50;;;0.50;;
71083;SDS011;58741;52.672;13.548;2023-05-10T14:28:30;0.57;;;0.57;;
71083;SDS011;58741;52.672;13.548;2023-05-10T14:30:56;0.77;;;0.77;;
71083;SDS011;58741;52.672;13.548;2023-05-10T14:37:25;0.68;;;0.60;;
71083;SDS011;58741;52.672;13.548;2023-05-10T14:39:51;0.45;;;0.45;;
71083;SDS011;58741;52.672;13.548;2023-05-10T14:42:17;1.45;;;0.68;;
71083;SDS011;58741;52.672;13.548;2023-05-10T14:44:43;1.20;;;0.88;;
71083;SDS011;58741;52.672;13.548;2023-05-10T14:47:08;0.60;;;0.60;;
71083;SDS011;58741;52.672;13.548;2023-05-10T14:49:34;0.60;;;0.60;;
71083;SDS011;58741;52.672;13.548;2023-05-10T14:51:59;0.40;;;0.40;;
71083;SDS011;58741;52.672;13.548;2023-05-10T14:54:25;0.68;;;0.68;;
71083;SDS011;58741;52.672;13.548;2023-05-10T14:56:51;1.23;;;0.85;;
71083;SDS011;58741;52.672;13.548;2023-05-10T14:59:16;0.70;;;0.70;;
71083;SDS011;58741;52.672;13.548;2023-05-10T15:01:42;1.05;;;0.80;;
71083;SDS011;58741;52.672;13.548;2023-05-10T15:04:08;1.05;;;0.75;;
71083;SDS011;58741;52.672;13.548;2023-05-10T15:06:34;1.02;;;0.80;;
71083;SDS011;58741;52.672;13.548;2023-05-10T15:09:00;1.30;;;0.80;;
71083;SDS011;58741;52.672;13.548;2023-05-10T15:11:27;0.70;;;0.70;;
71083;SDS011;58741;52.672;13.548;2023-05-10T15:13:53;0.73;;;0.73;;
71083;SDS011;58741;52.672;13.548;2023-05-10T15:16:19;0.63;;;0.60;;
71083;SDS011;58741;52.672;13.548;2023-05-10T15:18:45;1.10;;;0.68;;
71083;SDS011;58741;52.672;13.548;2023-05-10T15:21:11;1.33;;;0.88;;
71083;SDS011;58741;52.672;13.548;2023-05-10T15:23:37;0.95;;;0.90;;
71083;SDS011;58741;52.672;13.548;2023-05-10T15:26:06;1.83;;;0.80;;
71083;SDS011;58741;52.672;13.548;2023-05-10T15:28:31;1.00;;;0.90;;
71083;SDS011;58741;52.672;13.548;2023-05-10T15:30:57;1.85;;;1.00;;
71083;SDS011;58741;52.672;13.548;2023-05-10T15:33:23;1.65;;;0.80;;
71083;SDS011;58741;52.672;13.548;2023-05-10T15:35:49;0.80;;;0.80;;
71083;SDS011;58741;52.672;13.548;2023-05-10T15:38:15;0.70;;;0.70;;
71083;SDS011;58741;52.672;13.548;2023-05-10T15:40:41;0.73;;;0.73;;
71083;SDS011;58741;52.672;13.548;2023-05-10T15:43:06;1.13;;;0.90;;
71083;SDS011;58741;52.672;13.548;2023-05-10T15:45:32;0.88;;;0.65;;
71083;SDS011;58741;52.672;13.548;2023-05-10T15:47:58;0.75;;;0.75;;
71083;SDS011;58741;52.672;13.548;2023-05-10T15:50:26;0.65;;;0.65;;
71083;SDS011;58741;52.672;13.548;2023-05-10T15:52:52;1.15;;;0.77;;
71083;SDS011;58741;52.672;13.548;2023-05-10T15:55:18;1.95;;;0.75;;
71083;SDS011;58741;52.672;13.548;2023-05-10T15:57:44;3.95;;;0.68;;
71083;SDS011;58741;52.672;13.548;2023-05-10T16:00:11;0.50;;;0.47;;
71083;SDS011;58741;52.672;13.548;2023-05-10T16:02:40;0.57;;;0.57;;
71083;SDS011;58741;52.672;13.548;2023-05-10T16:05:06;0.50;;;0.50;;
71083;SDS011;58741;52.672;13.548;2023-05-10T16:07:32;0.73;;;0.70;;
71083;SDS011;58741;52.672;13.548;2023-05-10T16:09:58;0.65;;;0.63;;
71083;SDS011;58741;52.672;13.548;2023-05-10T16:12:24;0.45;;;0.45;;
71083;SDS011;58741;52.672;13.548;2023-05-10T16:14:49;0.70;;;0.63;;
71083;SDS011;58741;52.672;13.548;2023-05-10T16:17:15;0.55;;;0.55;;
71083;SDS011;58741;52.672;13.548;2023-05-10T16:19:41;0.70;;;0.70;;
71083;SDS011;58741;52.672;13.548;2023-05-10T16:22:06;2.40;;;0.95;;
71083;SDS011;58741;52.672;13.548;2023-05-10T16:24:32;0.98;;;0.70;;
71083;SDS011;58741;52.672;13.548;2023-05-10T16:26:57;0.77;;;0.70;;
71083;SDS011;58741;52.672;13.548;2023-05-10T16:29:23;0.77;;;0.77;;
71083;SDS011;58741;52.672;13.548;2023-05-10T16:31:49;2.67;;;0.63;;
71083;SDS011;58741;52.672;13.548;2023-05-10T16:34:14;0.60;;;0.60;;
71083;SDS011;58741;52.672;13.548;2023-05-10T16:36:40;0.60;;;0.60;;
71083;SDS011;58741;52.672;13.548;2023-05-10T16:39:06;1.08;;;0.70;;
71083;SDS011;58741;52.672;13.548;2023-05-10T16:41:33;2.97;;;0.70;;
71083;SDS011;58741;52.672;13.548;2023-05-10T16:43:59;0.57;;;0.57;;
71083;SDS011;58741;52.672;13.548;2023-05-10T16:46:25;0.63;;;0.63;;
71083;SDS011;58741;52.672;13.548;2023-05-10T16:48:51;0.60;;;0.60;;
71083;SDS011;58741;52.672;13.548;2023-05-10T16:51:17;0.77;;;0.52;;
71083;SDS011;58741;52.672;13.548;2023-05-10T16:53:42;0.88;;;0.88;;
71083;SDS011;58741;52.672;13.548;2023-05-10T16:56:08;1.75;;;0.93;;
71083;SDS011;58741;52.672;13.548;2023-05-10T16:58:34;0.98;;;0.88;;
71083;SDS011;58741;52.672;13.548;2023-05-10T17:01:00;0.68;;;0.68;;
71083;SDS011;58741;52.672;13.548;2023-05-10T17:05:59;0.65;;;0.40;;
71083;SDS011;58741;52.672;13.548;2023-05-10T17:08:27;0.57;;;0.57;;
71083;SDS011;58741;52.672;13.548;2023-05-10T17:10:52;0.57;;;0.50;;
71083;SDS011;58741;52.672;13.548;2023-05-10T17:13:18;0.93;;;0.70;;
71083;SDS011;58741;52.672;13.548;2023-05-10T17:15:44;0.95;;;0.80;;
71083;SDS011;58741;52.672;13.548;2023-05-10T17:18:11;1.77;;;1.10;;
71083;SDS011;58741;52.672;13.548;2023-05-10T17:20:36;1.95;;;0.77;;
71083;SDS011;58741;52.672;13.548;2023-05-10T17:23:02;0.70;;;0.70;;
71083;SDS011;58741;52.672;13.548;2023-05-10T17:25:28;1.00;;;0.63;;
71083;SDS011;58741;52.672;13.548;2023-05-10T17:27:54;0.93;;;0.82;;
71083;SDS011;58741;52.672;13.548;2023-05-10T17:30:19;1.42;;;1.30;;
71083;SDS011;58741;52.672;13.548;2023-05-10T17:32:51;1.58;;;1.23;;
71083;SDS011;58741;52.672;13.548;2023-05-10T17:35:18;1.98;;;1.00;;
71083;SDS011;58741;52.672;13.548;2023-05-10T17:37:45;1.65;;;1.00;;
71083;SDS011;58741;52.672;13.548;2023-05-10T17:40:10;1.27;;;1.00;;
71083;SDS011;58741;52.672;13.548;2023-05-10T17:42:36;1.35;;;1.20;;
71083;SDS011;58741;52.672;13.548;2023-05-10T17:45:02;1.13;;;0.90;;
71083;SDS011;58741;52.672;13.548;2023-05-10T17:47:28;1.45;;;1.05;;
71083;SDS011;58741;52.672;13.548;2023-05-10T17:49:53;1.48;;;1.17;;
71083;SDS011;58741;52.672;13.548;2023-05-10T17:52:19;1.98;;;1.33;;
71083;SDS011;58741;52.672;13.548;2023-05-10T17:54:45;3.70;;;1.38;;
71083;SDS011;58741;52.672;13.548;2023-05-10T17:57:11;1.65;;;1.02;;
71083;SDS011;58741;52.672;13.548;2023-05-10T17:59:36;0.98;;;0.90;;
71083;SDS011;58741;52.672;13.548;2023-05-10T18:02:02;1.27;;;1.10;;
71083;SDS011;58741;52.672;13.548;2023-05-10T18:04:28;0.95;;;0.85;;
71083;SDS011;58741;52.672;13.548;2023-05-10T18:06:53;0.95;;;0.93;;
71083;SDS011;58741;52.672;13.548;2023-05-10T18:09:25;1.92;;;1.10;;
71083;SDS011;58741;52.672;13.548;2023-05-10T18:11:51;1.95;;;1.30;;
71083;SDS011;58741;52.672;13.548;2023-05-10T18:14:17;2.22;;;0.93;;
71083;SDS011;58741;52.672;13.548;2023-05-10T18:16:43;1.17;;;1.05;;
71083;SDS011;58741;52.672;13.548;2023-05-10T18:19:09;1.10;;;1.00;;
71083;SDS011;58741;52.672;13.548;2023-05-10T18:21:34;7.18;;;1.10;;
71083;SDS011;58741;52.672;13.548;2023-05-10T18:24:01;0.95;;;0.68;;
71083;SDS011;58741;52.672;13.548;2023-05-10T18:26:26;0.77;;;0.73;;
71083;SDS011;58741;52.672;13.548;2023-05-10T18:28:52;0.70;;;0.70;;
71083;SDS011;58741;52.672;13.548;2023-05-10T18:31:17;2.15;;;1.20;;
71083;SDS011;58741;52.672;13.548;2023-05-10T18:33:43;1.25;;;0.88;;
71083;SDS011;58741;52.672;13.548;2023-05-10T18:36:09;1.50;;;1.05;;
71083;SDS011;58741;52.672;13.548;2023-05-10T18:38:35;0.93;;;0.70;;
71083;SDS011;58741;52.672;13.548;2023-05-10T18:41:01;1.15;;;0.95;;
71083;SDS011;58741;52.672;13.548;2023-05-10T18:43:27;1.30;;;1.00;;
71083;SDS011;58741;52.672;13.548;2023-05-10T18:45:53;1.20;;;0.90;;
71083;SDS011;58741;52.672;13.548;2023-05-10T18:48:22;0.70;;;0.70;;
71083;SDS011;58741;52.672;13.548;2023-05-10T18:50:49;1.52;;;0.90;;
71083;SDS011;58741;52.672;13.548;2023-05-10T18:53:15;2.03;;;1.17;;
71083;SDS011;58741;52.672;13.548;2023-05-10T18:55:41;1.33;;;0.95;;
71083;SDS011;58741;52.672;13.548;2023-05-10T18:58:06;0.90;;;0.90;;
71083;SDS011;58741;52.672;13.548;2023-05-10T19:00:33;0.95;;;0.77;;
71083;SDS011;58741;52.672;13.548;2023-05-10T19:02:58;1.08;;;0.90;;
71083;SDS011;58741;52.672;13.548;2023-05-10T19:05:24;0.85;;;0.70;;
71083;SDS011;58741;52.672;13.548;2023-05-10T19:07:54;1.38;;;0.88;;
71083;SDS011;58741;52.672;13.548;2023-05-10T19:10:20;0.93;;;0.80;;
71083;SDS011;58741;52.672;13.548;2023-05-10T19:12:46;0.70;;;0.70;;
71083;SDS011;58741;52.672;13.548;2023-05-10T19:15:11;1.40;;;1.00;;
71083;SDS011;58741;52.672;13.548;2023-05-10T19:17:39;0.70;;;0.70;;
71083;SDS011;58741;52.672;13.548;2023-05-10T19:20:05;2.92;;;0.98;;
71083;SDS011;58741;52.672;13.548;2023-05-10T19:22:31;1.23;;;0.63;;
71083;SDS011;58741;52.672;13.548;2023-05-10T19:24:57;0.95;;;0.85;;
71083;SDS011;58741;52.672;13.548;2023-05-10T19:27:23;1.02;;;0.85;;
71083;SDS011;58741;52.672;13.548;2023-05-10T19:29:48;1.42;;;0.70;;
71083;SDS011;58741;52.672;13.548;2023-05-10T19:32:15;2.20;;;0.90;;
71083;SDS011;58741;52.672;13.548;2023-05-10T19:34:41;3.50;;;1.50;;
71083;SDS011;58741;52.672;13.548;2023-05-10T19:37:07;7.07;;;2.42;;
71083;SDS011;58741;52.672;13.548;2023-05-10T19:39:32;3.63;;;2.30;;
71083;SDS011;58741;52.672;13.548;2023-05-10T19:41:58;2.55;;;1.83;;
71083;SDS011;58741;52.672;13.548;2023-05-10T19:44:24;8.23;;;2.60;;
71083;SDS011;58741;52.672;13.548;2023-05-10T19:46:50;13.95;;;6.18;;
71083;SDS011;58741;52.672;13.548;2023-05-10T19:49:16;14.85;;;6.72;;
71083;SDS011;58741;52.672;13.548;2023-05-10T19:51:42;11.98;;;5.70;;
71083;SDS011;58741;52.672;13.548;2023-05-10T19:54:07;10.93;;;5.40;;
71083;SDS011;58741;52.672;13.548;2023-05-10T19:56:35;7.03;;;4.20;;
71083;SDS011;58741;52.672;13.548;2023-05-10T19:59:01;3.72;;;2.92;;
71083;SDS011;58741;52.672;13.548;2023-05-10T20:01:27;7.00;;;3.13;;
71083;SDS011;58741;52.672;13.548;2023-05-10T20:03:53;4.53;;;2.60;;
71083;SDS011;58741;52.672;13.548;2023-05-10T20:06:19;2.58;;;1.98;;